Time;durP1;ratioP1;P1;durP2;ratioP2;P2;SDS_P1;SDS_P2;PMS_P1;PMS_P2;Temp;Humidity;BMP_temperature;BMP_pressure;BME280_temperature;BME280_humidity;BME280_pressure;Samples;Min_cycle;Max_cycle;Signal;HPM_P1;HPM_P2
2023/02/25 00:01:54;;;;;;;1.45;0.20;;;;;;;2.74;85.17;99818.56;5100110;28;20027;-67
2023/02/25 00:04:20;;;;;;;3.00;0.38;;;;;;;2.72;85.60;99814.47;5103198;28;20035;-67
2023/02/25 00:06:46;;;;;;;0.60;0.20;;;;;;;2.90;85.74;99835.44;5098883;28;20024;-67
2023/02/25 00:09:11;;;;;;;1.63;0.40;;;;;;;3.23;85.20;99839.59;5099697;28;20558;-66
2023/02/25 00:11:37;;;;;;;0.50;0.30;;;;;;;2.90;85.68;99838.94;5102665;28;20031;-67
2023/02/25 00:14:03;;;;;;;0.95;0.28;;;;;;;2.97;85.95;99839.06;5101159;28;20036;-67
2023/02/25 00:16:28;;;;;;;2.28;0.30;;;;;;;3.05;85.68;99831.06;5100983;28;20486;-66
2023/02/25 00:18:55;;;;;;;0.70;0.30;;;;;;;2.96;86.13;99832.09;5099164;28;20345;-68
2023/02/25 00:21:21;;;;;;;1.25;0.40;;;;;;;2.79;87.88;99847.28;5101901;28;20038;-67
2023/02/25 00:23:48;;;;;;;1.73;0.30;;;;;;;2.85;89.51;99840.44;5101275;28;20499;-67
2023/02/25 00:26:16;;;;;;;1.73;0.40;;;;;;;2.78;89.25;99822.56;5100652;28;20367;-67
2023/02/25 00:28:42;;;;;;;1.60;0.30;;;;;;;2.74;90.30;99865.56;5100702;28;20028;-66
2023/02/25 00:31:14;;;;;;;1.05;0.20;;;;;;;2.86;90.02;99837.63;5100560;28;20066;-67
2023/02/25 00:33:40;;;;;;;1.63;0.68;;;;;;;2.83;90.02;99851.25;5098992;28;20040;-67
2023/02/25 00:36:08;;;;;;;0.80;0.30;;;;;;;2.63;88.94;99873.91;5100138;28;20343;-67
2023/02/25 00:38:35;;;;;;;0.80;0.20;;;;;;;2.67;89.76;99868.06;5101291;28;20103;-66
2023/02/25 00:41:10;;;;;;;1.67;0.40;;;;;;;2.70;88.78;99875.72;5101173;28;20105;-68
2023/02/25 00:43:43;;;;;;;0.75;0.43;;;;;;;2.52;88.86;99862.66;5101926;28;20031;-66
2023/02/25 00:46:09;;;;;;;0.93;0.22;;;;;;;2.53;88.15;99884.72;5098069;28;20028;-67
2023/02/25 00:48:36;;;;;;;1.92;0.32;;;;;;;2.54;87.56;99876.56;5097099;28;20560;-67
2023/02/25 00:51:25;;;;;;;0.98;0.30;;;;;;;2.29;86.27;99867.84;5099159;28;20050;-67
2023/02/25 00:53:52;;;;;;;1.65;0.30;;;;;;;2.64;86.14;99868.41;5100329;28;20436;-67
2023/02/25 00:56:19;;;;;;;0.90;0.22;;;;;;;2.53;86.49;99903.31;5096525;28;20027;-66
2023/02/25 00:58:46;;;;;;;0.75;0.20;;;;;;;2.74;85.73;99871.69;5097888;28;20109;-67
2023/02/25 01:01:25;;;;;;;1.75;0.15;;;;;;;2.41;86.04;99862.16;5100400;28;20028;-67
2023/02/25 01:03:54;;;;;;;1.48;0.25;;;;;;;2.51;84.97;99900.81;5099637;28;20446;-66
2023/02/25 01:06:19;;;;;;;1.58;0.20;;;;;;;2.37;84.91;99895.38;5101036;28;20024;-66
2023/02/25 01:08:45;;;;;;;0.22;0.15;;;;;;;2.50;85.44;99893.03;5098543;28;20493;-66
2023/02/25 01:11:32;;;;;;;3.63;0.22;;;;;;;2.48;84.50;99913.59;5101017;28;20028;-67
2023/02/25 01:14:00;;;;;;;1.63;0.30;;;;;;;2.53;84.57;99908.63;5100266;28;20096;-67
2023/02/25 01:16:28;;;;;;;1.35;0.40;;;;;;;2.38;85.88;99912.94;5100634;28;20024;-67
2023/02/25 01:18:56;;;;;;;1.70;0.28;;;;;;;2.44;85.21;99917.59;5098316;28;20052;-67
2023/02/25 01:21:27;;;;;;;1.27;0.22;;;;;;;2.46;83.69;99923.56;5100129;28;20035;-67
2023/02/25 01:24:03;;;;;;;1.90;0.22;;;;;;;2.46;84.84;99908.47;5098234;28;20032;-67
2023/02/25 01:26:31;;;;;;;2.63;0.50;;;;;;;2.42;83.76;99927.53;5098534;28;20053;-67
2023/02/25 01:28:56;;;;;;;0.65;0.20;;;;;;;2.33;84.86;99938.19;5099016;28;20040;-66
2023/02/25 01:31:26;;;;;;;3.05;0.60;;;;;;;2.38;84.26;99931.53;5099700;28;20047;-66
2023/02/25 01:33:55;;;;;;;0.65;0.20;;;;;;;2.43;83.63;99945.16;5099370;28;20027;-67
2023/02/25 01:36:21;;;;;;;1.02;0.30;;;;;;;2.30;83.82;99949.13;5100052;28;20105;-67
2023/02/25 01:38:46;;;;;;;1.17;0.20;;;;;;;2.34;83.04;99939.00;5115600;28;20379;-67
2023/02/25 01:41:12;;;;;;;1.60;0.40;;;;;;;1.96;83.47;99932.56;5099539;28;20083;-67
2023/02/25 01:43:38;;;;;;;1.67;0.35;;;;;;;2.01;83.39;99954.09;5078188;28;20032;-66
2023/02/25 01:46:04;;;;;;;1.05;0.20;;;;;;;2.11;83.24;99960.06;5096208;28;20501;-67
2023/02/25 01:48:34;;;;;;;1.70;0.40;;;;;;;2.29;82.95;99967.91;5080743;28;20111;-66
2023/02/25 01:51:04;;;;;;;2.63;0.35;;;;;;;2.13;83.55;99963.41;5097284;28;20161;-67
2023/02/25 01:53:37;;;;;;;1.60;0.30;;;;;;;2.08;82.64;99981.63;5099859;28;20024;-66
2023/02/25 01:56:04;;;;;;;2.15;0.47;;;;;;;2.19;82.46;99973.38;5098536;28;20172;-65
2023/02/25 01:58:32;;;;;;;2.08;0.38;;;;;;;1.90;82.86;99968.53;5099612;28;20043;-67
2023/02/25 02:00:57;;;;;;;3.90;0.40;;;;;;;1.86;83.75;99957.41;5098105;28;20012;-66
2023/02/25 02:03:26;;;;;;;3.92;0.50;;;;;;;1.84;83.46;99996.53;5098758;28;20035;-66
2023/02/25 02:06:20;;;;;;;3.20;0.50;;;;;;;1.83;83.53;99986.09;5098102;28;20064;-66
2023/02/25 02:08:47;;;;;;;1.75;0.30;;;;;;;1.83;83.54;99997.53;5098461;28;20372;-67
2023/02/25 02:11:12;;;;;;;2.05;0.30;;;;;;;2.01;82.95;99994.72;5103558;28;20028;-67
2023/02/25 02:13:43;;;;;;;2.35;0.40;;;;;;;1.57;82.95;100000.25;5102194;28;20089;-67
2023/02/25 02:16:29;;;;;;;2.05;0.32;;;;;;;1.76;83.15;100004.47;5098540;28;20020;-66
2023/02/25 02:18:57;;;;;;;3.47;0.50;;;;;;;1.56;82.49;100006.56;5097980;28;20040;-66
2023/02/25 02:21:49;;;;;;;2.50;0.25;;;;;;;1.80;83.28;100020.88;5098319;28;20032;-66
2023/02/25 02:24:32;;;;;;;2.55;0.45;;;;;;;1.68;82.41;100033.59;5094492;28;20031;-66
2023/02/25 02:27:08;;;;;;;2.47;0.25;;;;;;;1.58;82.29;100019.66;5098379;28;20519;-66
2023/02/25 02:29:52;;;;;;;1.55;0.25;;;;;;;1.52;83.31;100021.09;5098528;28;20056;-66
2023/02/25 02:32:27;;;;;;;2.28;0.30;;;;;;;1.53;82.37;100027.28;5099395;28;20133;-66
2023/02/25 02:35:19;;;;;;;0.80;0.20;;;;;;;1.52;83.17;100017.63;5098996;28;20096;-66
2023/02/25 02:38:04;;;;;;;1.80;0.38;;;;;;;1.56;83.21;100033.09;5097585;28;20146;-67
2023/02/25 02:40:51;;;;;;;2.78;0.50;;;;;;;1.29;82.74;100018.22;5098974;28;20054;-66
2023/02/25 02:43:41;;;;;;;2.78;0.40;;;;;;;1.31;82.48;100032.13;5099362;28;20020;-66
2023/02/25 02:46:24;;;;;;;1.38;0.38;;;;;;;1.21;82.80;100044.66;5097698;28;20036;-66
2023/02/25 02:48:55;;;;;;;1.83;0.25;;;;;;;1.49;82.69;100037.38;5097954;28;20024;-67
2023/02/25 02:51:34;;;;;;;1.40;0.30;;;;;;;1.27;81.53;100054.66;5098577;28;20027;-66
2023/02/25 02:54:02;;;;;;;1.33;0.30;;;;;;;1.42;82.06;100017.75;5098623;28;20031;-66
2023/02/25 02:56:30;;;;;;;2.00;0.22;;;;;;;1.20;82.43;100060.75;5097333;28;20505;-67
2023/02/25 02:59:04;;;;;;;1.05;0.20;;;;;;;1.13;82.93;100052.59;5098254;28;20020;-66
2023/02/25 03:01:42;;;;;;;3.13;0.50;;;;;;;1.37;81.81;100039.44;5096931;28;20093;-66
2023/02/25 03:04:12;;;;;;;2.60;0.52;;;;;;;0.97;82.65;100039.22;5097458;28;20096;-67
2023/02/25 03:06:48;;;;;;;4.40;0.50;;;;;;;1.02;82.41;100043.06;5097864;28;20045;-66
2023/02/25 03:09:31;;;;;;;1.38;0.38;;;;;;;1.24;82.24;100054.13;5096634;28;20028;-66
2023/02/25 03:11:56;;;;;;;2.20;0.75;;;;;;;0.92;81.70;100088.19;5096502;28;20076;-66
2023/02/25 03:14:22;;;;;;;1.73;0.50;;;;;;;1.10;81.91;100059.03;5107700;28;20055;-66
2023/02/25 03:17:01;;;;;;;2.70;0.32;;;;;;;1.06;81.84;100076.22;5118595;28;20118;-66
2023/02/25 03:19:41;;;;;;;4.07;0.60;;;;;;;0.96;81.74;100083.44;5094543;28;20044;-66
2023/02/25 03:22:14;;;;;;;2.65;0.60;;;;;;;1.09;82.41;100078.56;5097385;28;20108;-66
2023/02/25 03:24:49;;;;;;;3.20;0.50;;;;;;;1.40;81.71;100092.16;5096026;28;20044;-66
2023/02/25 03:27:28;;;;;;;1.40;0.22;;;;;;;1.03;81.64;100067.75;5103534;28;20047;-66
2023/02/25 03:30:11;;;;;;;2.88;0.55;;;;;;;1.18;81.92;100111.22;5105431;28;20021;-67
2023/02/25 03:32:40;;;;;;;1.98;0.40;;;;;;;1.22;81.54;100109.09;5101896;28;20027;-66
2023/02/25 03:35:09;;;;;;;2.35;0.50;;;;;;;1.28;80.75;100122.56;5100119;28;20024;-66
2023/02/25 03:37:38;;;;;;;1.90;0.47;;;;;;;1.30;80.71;100123.25;5099893;28;20024;-66
2023/02/25 03:40:12;;;;;;;4.75;0.70;;;;;;;0.85;81.01;100123.41;5099843;28;20498;-66
2023/02/25 03:42:42;;;;;;;3.17;0.40;;;;;;;1.13;80.42;100137.38;5099283;28;20024;-67
2023/02/25 03:45:11;;;;;;;3.63;0.52;;;;;;;1.06;80.05;100154.84;5101652;28;20035;-66
2023/02/25 03:47:38;;;;;;;3.45;0.60;;;;;;;1.16;80.77;100140.53;5101283;28;20027;-66
2023/02/25 03:50:09;;;;;;;2.45;0.60;;;;;;;1.20;80.47;100151.66;5096172;28;20482;-66
2023/02/25 03:52:35;;;;;;;1.23;0.28;;;;;;;1.21;80.72;100161.25;5096477;28;20020;-66
2023/02/25 03:55:01;;;;;;;3.50;0.93;;;;;;;1.23;80.49;100161.13;5102025;28;20042;-66
2023/02/25 03:57:39;;;;;;;4.68;0.60;;;;;;;0.86;79.90;100178.03;5102317;28;20024;-66
2023/02/25 04:00:14;;;;;;;2.65;0.52;;;;;;;0.92;80.47;100142.97;5112995;28;20024;-66
2023/02/25 04:02:40;;;;;;;3.38;0.60;;;;;;;1.10;79.88;100172.13;5100560;28;20107;-66
2023/02/25 04:05:06;;;;;;;2.60;0.52;;;;;;;1.19;80.53;100176.47;5081964;28;20028;-66
2023/02/25 04:07:32;;;;;;;1.73;0.40;;;;;;;1.11;79.50;100173.78;5079193;28;20558;-65
2023/02/25 04:09:57;;;;;;;3.10;0.85;;;;;;;1.08;79.98;100189.97;5098067;28;20028;-66
2023/02/25 04:12:22;;;;;;;2.33;0.32;;;;;;;1.17;79.93;100191.72;5100278;28;20031;-67
2023/02/25 04:14:48;;;;;;;2.75;0.50;;;;;;;1.12;79.58;100192.16;5101735;28;20032;-66
2023/02/25 04:17:13;;;;;;;1.77;0.40;;;;;;;1.07;80.06;100196.28;5100712;28;20410;-67
2023/02/25 04:19:39;;;;;;;3.50;0.52;;;;;;;1.08;79.98;100197.94;5099909;28;20067;-66
2023/02/25 04:22:06;;;;;;;3.60;0.63;;;;;;;0.83;79.66;100181.84;5099090;28;20024;-67
2023/02/25 04:24:33;;;;;;;7.75;0.60;;;;;;;0.99;79.84;100215.56;5099444;28;20494;-66
2023/02/25 04:27:00;;;;;;;3.20;0.40;;;;;;;0.70;78.79;100200.72;5099089;28;20023;-66
2023/02/25 04:29:26;;;;;;;2.45;0.57;;;;;;;1.01;79.05;100213.59;5082643;28;20028;-66
2023/02/25 04:31:52;;;;;;;6.45;0.68;;;;;;;1.11;78.58;100218.81;5107251;28;20046;-66
2023/02/25 04:34:18;;;;;;;2.28;0.60;;;;;;;1.05;79.21;100222.06;5112614;28;20031;-66
2023/02/25 04:36:44;;;;;;;4.40;0.40;;;;;;;1.05;78.60;100235.31;5100068;28;20032;-66
2023/02/25 04:39:11;;;;;;;3.38;0.55;;;;;;;0.70;78.62;100229.03;5102823;28;20032;-66
2023/02/25 04:41:37;;;;;;;4.70;0.68;;;;;;;0.72;78.25;100235.00;5102069;28;20051;-66
2023/02/25 04:44:04;;;;;;;4.28;0.63;;;;;;;0.92;78.82;100223.28;5098201;28;20039;-66
2023/02/25 04:46:30;;;;;;;1.70;0.40;;;;;;;0.80;78.65;100228.97;5115007;28;20026;-66
2023/02/25 04:48:56;;;;;;;4.75;0.75;;;;;;;0.69;78.72;100251.19;5093596;28;20505;-66
2023/02/25 04:51:21;;;;;;;2.38;0.50;;;;;;;0.63;79.36;100243.81;5093949;28;20028;-66
2023/02/25 04:53:47;;;;;;;3.63;0.85;;;;;;;0.63;79.31;100265.00;5094383;28;20368;-65
2023/02/25 04:56:13;;;;;;;4.07;0.60;;;;;;;0.76;78.98;100254.88;5096234;28;20486;-66
2023/02/25 04:58:38;;;;;;;2.92;0.60;;;;;;;0.66;79.14;100260.28;5097029;28;20032;-66
2023/02/25 05:01:06;;;;;;;4.35;0.95;;;;;;;0.36;79.34;100252.63;5096193;28;20512;-66
2023/02/25 05:03:32;;;;;;;4.15;0.70;;;;;;;0.34;79.98;100260.72;5097088;28;20119;-66
2023/02/25 05:05:58;;;;;;;3.75;0.60;;;;;;;0.37;79.53;100265.72;5096634;28;20065;-67
2023/02/25 05:08:24;;;;;;;1.65;0.45;;;;;;;0.52;79.89;100263.41;5096523;28;20032;-66
2023/02/25 05:10:50;;;;;;;3.58;0.85;;;;;;;0.61;79.78;100272.28;5097671;28;20032;-66
2023/02/25 05:13:16;;;;;;;4.03;0.65;;;;;;;0.79;78.13;100274.94;5097024;28;20097;-66
2023/02/25 05:15:41;;;;;;;5.35;0.65;;;;;;;0.58;78.48;100267.28;5093785;28;20106;-66
2023/02/25 05:18:07;;;;;;;3.92;0.70;;;;;;;0.65;78.45;100284.22;5095125;28;20129;-66
2023/02/25 05:20:33;;;;;;;4.85;0.70;;;;;;;0.50;78.36;100297.16;5098936;28;20080;-66
2023/02/25 05:22:58;;;;;;;5.65;0.60;;;;;;;0.77;78.32;100304.25;5098539;28;20024;-66
2023/02/25 05:25:24;;;;;;;4.22;0.70;;;;;;;0.65;78.45;100302.78;5099209;28;20039;-66
2023/02/25 05:27:50;;;;;;;2.13;0.57;;;;;;;0.64;77.89;100262.22;5080665;28;20054;-66
2023/02/25 05:30:16;;;;;;;3.47;0.70;;;;;;;1.00;77.31;100311.78;5098658;28;20028;-66
2023/02/25 05:32:41;;;;;;;4.07;0.60;;;;;;;0.91;77.78;100306.38;5097803;28;20031;-66
2023/02/25 05:35:07;;;;;;;5.60;0.70;;;;;;;0.61;77.58;100315.47;5114811;28;20181;-66
2023/02/25 05:37:34;;;;;;;3.45;0.63;;;;;;;0.88;77.10;100292.59;5100947;28;20036;-66
2023/02/25 05:40:00;;;;;;;8.05;0.95;;;;;;;0.56;77.89;100293.88;5100508;28;20375;-66
2023/02/25 05:42:26;;;;;;;5.40;0.70;;;;;;;0.88;77.61;100316.44;5098613;28;20034;-66
2023/02/25 05:44:51;;;;;;;3.00;0.63;;;;;;;0.62;78.27;100308.34;5106230;28;20054;-66
2023/02/25 05:47:17;;;;;;;4.63;0.82;;;;;;;0.83;77.77;100329.28;5102840;28;20032;-66
2023/02/25 05:49:42;;;;;;;7.85;0.80;;;;;;;0.59;77.06;100295.41;5097743;28;20035;-65
2023/02/25 05:52:08;;;;;;;4.78;0.90;;;;;;;0.87;78.14;100328.84;5105411;28;20076;-66
2023/02/25 05:54:34;;;;;;;1.27;0.50;;;;;;;0.88;77.42;100330.53;5096976;28;20020;-66
2023/02/25 05:56:59;;;;;;;6.35;0.82;;;;;;;0.69;78.13;100331.44;5095852;28;20398;-66
2023/02/25 05:59:25;;;;;;;3.72;0.68;;;;;;;0.40;78.24;100336.88;5097130;28;20441;-66
2023/02/25 06:01:51;;;;;;;4.57;0.70;;;;;;;0.46;78.26;100344.25;5097695;28;20043;-66
2023/02/25 06:04:16;;;;;;;8.23;1.02;;;;;;;0.58;78.10;100344.88;5096230;28;20053;-66
2023/02/25 06:06:42;;;;;;;4.68;0.98;;;;;;;0.52;78.64;100347.28;5095850;28;20059;-66
2023/02/25 06:09:09;;;;;;;4.78;0.75;;;;;;;0.47;78.04;100343.25;5096427;28;20020;-66
2023/02/25 06:11:35;;;;;;;4.22;0.60;;;;;;;0.37;78.52;100363.63;5078856;28;20214;-65
2023/02/25 06:14:00;;;;;;;3.30;0.85;;;;;;;0.44;79.43;100353.31;5097868;28;20024;-66
2023/02/25 06:16:31;;;;;;;2.20;0.70;;;;;;;0.40;78.58;100359.88;5096688;28;20051;-66
2023/02/25 06:18:58;;;;;;;5.53;0.60;;;;;;;0.31;79.55;100372.16;5095407;28;20047;-66
2023/02/25 06:21:24;;;;;;;5.78;0.90;;;;;;;0.23;79.81;100372.00;5096691;28;20035;-66
2023/02/25 06:23:50;;;;;;;5.50;1.05;;;;;;;0.35;80.15;100373.53;5097620;28;20095;-66
2023/02/25 06:26:17;;;;;;;3.38;1.00;;;;;;;0.29;79.03;100379.38;5096732;28;20032;-66
2023/02/25 06:28:42;;;;;;;4.38;0.80;;;;;;;0.55;78.53;100374.28;5095745;28;20035;-65
2023/02/25 06:31:09;;;;;;;2.90;0.50;;;;;;;0.65;78.50;100390.16;5096645;28;20024;-66
2023/02/25 06:33:35;;;;;;;3.53;0.85;;;;;;;0.55;78.88;100397.28;5096254;28;20024;-66
2023/02/25 06:36:02;;;;;;;7.22;1.27;;;;;;;0.66;78.73;100397.97;5096354;28;20032;-65
2023/02/25 06:38:27;;;;;;;5.63;0.88;;;;;;;0.86;78.08;100397.84;5096559;28;20020;-66
2023/02/25 06:40:52;;;;;;;4.70;1.00;;;;;;;0.75;77.21;100400.69;5094771;28;20039;-66
2023/02/25 06:43:18;;;;;;;4.72;0.80;;;;;;;0.79;77.56;100412.66;5076990;28;20496;-65
2023/02/25 06:45:44;;;;;;;4.22;0.80;;;;;;;0.82;76.96;100405.25;5078170;28;20054;-65
2023/02/25 06:48:09;;;;;;;5.22;1.10;;;;;;;0.80;77.02;100406.41;5096795;28;20031;-69
2023/02/25 06:50:37;;;;;;;6.20;1.40;;;;;;;0.89;76.89;100403.72;5097115;28;20561;-66
2023/02/25 06:53:03;;;;;;;4.18;0.90;;;;;;;0.65;77.21;100414.81;5095706;28;20102;-67
2023/02/25 06:55:28;;;;;;;3.72;0.50;;;;;;;0.73;77.27;100421.19;5095056;28;20067;-66
2023/02/25 06:57:54;;;;;;;4.28;0.60;;;;;;;0.59;77.89;100427.78;5103375;28;20050;-66
2023/02/25 07:00:20;;;;;;;3.45;0.90;;;;;;;0.77;76.96;100412.00;5098017;28;20031;-67
2023/02/25 07:02:45;;;;;;;3.85;0.77;;;;;;;0.68;76.85;100416.34;5083562;28;20043;-67
2023/02/25 07:05:11;;;;;;;4.80;0.90;;;;;;;0.92;77.13;100429.06;5103685;28;20032;-66
2023/02/25 07:07:36;;;;;;;4.47;1.10;;;;;;;0.92;76.73;100431.72;5103675;28;20043;-66
2023/02/25 07:10:02;;;;;;;4.32;0.80;;;;;;;0.89;76.84;100443.47;5100863;28;20063;-67
2023/02/25 07:12:27;;;;;;;5.85;0.70;;;;;;;0.88;77.34;100433.81;5116824;28;20048;-64
2023/02/25 07:14:53;;;;;;;2.75;0.77;;;;;;;1.05;76.57;100449.94;5099594;28;20032;-66
2023/02/25 07:17:18;;;;;;;3.65;0.75;;;;;;;0.98;76.74;100422.34;5100975;28;20082;-67
2023/02/25 07:19:44;;;;;;;2.28;0.70;;;;;;;0.64;76.64;100446.75;5081592;28;20503;-64
2023/02/25 07:22:17;;;;;;;4.20;0.75;;;;;;;0.66;77.34;100444.75;5100360;28;20147;-66
2023/02/25 07:24:43;;;;;;;3.13;0.60;;;;;;;0.65;76.64;100464.28;5099607;28;20487;-66
2023/02/25 07:27:09;;;;;;;4.03;0.80;;;;;;;0.64;76.03;100421.09;5098924;28;20043;-64
2023/02/25 07:29:34;;;;;;;4.53;0.90;;;;;;;1.01;75.56;100467.09;5084845;28;20459;-64
2023/02/25 07:31:59;;;;;;;4.20;1.15;;;;;;;0.77;75.75;100479.03;5099251;28;20040;-64
2023/02/25 07:34:26;;;;;;;1.88;0.68;;;;;;;0.82;74.62;100502.44;5100695;28;20421;-63
2023/02/25 07:36:51;;;;;;;4.47;0.85;;;;;;;0.85;75.56;100487.09;5099378;28;20488;-63
2023/02/25 07:39:17;;;;;;;6.32;0.80;;;;;;;0.98;75.90;100486.78;5099381;28;20463;-65
2023/02/25 07:41:43;;;;;;;2.97;0.70;;;;;;;1.23;75.35;100501.19;5081634;28;20031;-65
2023/02/25 07:44:08;;;;;;;2.42;0.65;;;;;;;1.21;74.90;100497.00;5098222;28;20024;-64
2023/02/25 07:46:34;;;;;;;3.17;0.60;;;;;;;1.30;74.81;100501.44;5108980;28;20047;-64
2023/02/25 07:49:00;;;;;;;2.33;0.88;;;;;;;1.30;74.98;100506.75;5104687;28;20146;-65
2023/02/25 07:51:26;;;;;;;1.50;0.40;;;;;;;1.37;74.78;100490.09;5097407;28;20455;-66
2023/02/25 07:53:54;;;;;;;5.80;0.70;;;;;;;1.27;74.75;100491.13;5099785;28;20394;-66
2023/02/25 07:56:23;;;;;;;5.18;0.95;;;;;;;1.39;74.97;100505.84;5097560;28;20108;-68
2023/02/25 07:58:49;;;;;;;2.85;0.80;;;;;;;1.38;73.78;100499.69;5098058;28;20099;-66
2023/02/25 08:01:23;;;;;;;2.72;0.70;;;;;;;1.34;73.95;100514.25;5096403;28;20055;-66
2023/02/25 08:03:50;;;;;;;3.33;0.90;;;;;;;1.28;73.46;100520.13;5099605;28;20111;-66
2023/02/25 08:06:15;;;;;;;3.55;0.70;;;;;;;1.30;73.75;100522.63;5097209;28;20336;-66
2023/02/25 08:08:41;;;;;;;5.00;0.82;;;;;;;1.63;72.15;100540.63;5077903;28;20409;-64
2023/02/25 08:11:08;;;;;;;4.32;0.80;;;;;;;1.65;72.75;100538.63;5098484;28;20028;-65
2023/02/25 08:13:34;;;;;;;3.90;0.40;;;;;;;1.70;71.88;100530.25;5096049;28;20059;-66
2023/02/25 08:16:03;;;;;;;3.55;0.68;;;;;;;1.19;72.65;100526.28;5095710;28;20539;-66
2023/02/25 08:18:28;;;;;;;4.50;0.75;;;;;;;1.49;73.23;100534.94;5101380;28;20044;-65
2023/02/25 08:20:54;;;;;;;4.38;0.60;;;;;;;1.79;72.22;100560.38;5098524;28;20095;-65
2023/02/25 08:23:22;;;;;;;1.98;0.50;;;;;;;1.73;71.52;100561.78;5096535;28;20056;-65
2023/02/25 08:25:52;;;;;;;3.13;1.00;;;;;;;1.55;71.15;100551.13;5078439;28;20046;-65
2023/02/25 08:28:17;;;;;;;4.68;0.93;;;;;;;1.90;71.58;100569.94;5097209;28;20506;-65
2023/02/25 08:30:43;;;;;;;4.28;0.85;;;;;;;1.86;71.25;100578.19;5081963;28;20032;-64
2023/02/25 08:33:09;;;;;;;3.65;0.75;;;;;;;1.62;70.33;100577.88;5099142;28;20031;-65
2023/02/25 08:35:34;;;;;;;3.03;0.80;;;;;;;2.03;70.74;100592.47;5100579;28;20021;-65
2023/02/25 08:37:59;;;;;;;4.97;0.93;;;;;;;2.23;70.42;100590.53;5096159;28;20032;-65
2023/02/25 08:40:25;;;;;;;3.70;1.00;;;;;;;2.06;70.57;100576.25;5099193;28;20024;-66
2023/02/25 08:42:51;;;;;;;1.95;0.68;;;;;;;2.21;70.10;100594.31;5099315;28;20028;-65
2023/02/25 08:45:16;;;;;;;3.13;0.45;;;;;;;2.08;71.07;100590.19;5080586;28;20028;-65
2023/02/25 08:47:42;;;;;;;3.50;0.68;;;;;;;2.02;70.98;100592.59;5099833;28;20059;-65
2023/02/25 08:50:09;;;;;;;2.97;0.65;;;;;;;1.76;70.46;100592.50;5087087;28;20020;-65
2023/02/25 08:52:34;;;;;;;0.88;0.30;;;;;;;1.87;71.01;100589.63;5099701;28;20035;-66
2023/02/25 08:55:01;;;;;;;2.03;0.70;;;;;;;1.81;69.69;100611.44;5099070;28;20157;-65
2023/02/25 08:57:26;;;;;;;3.67;0.50;;;;;;;2.06;70.38;100620.53;5095044;28;20035;-64
2023/02/25 08:59:52;;;;;;;5.03;1.40;;;;;;;2.09;70.34;100612.28;5097818;28;20035;-65
2023/02/25 09:02:17;;;;;;;2.22;0.60;;;;;;;2.31;69.69;100611.00;5098454;28;20036;-65
2023/02/25 09:04:43;;;;;;;1.40;0.40;;;;;;;2.28;68.49;100625.41;5079567;28;20486;-65
2023/02/25 09:07:08;;;;;;;2.00;0.45;;;;;;;2.23;68.04;100635.66;5099372;28;20060;-65
2023/02/25 09:09:34;;;;;;;2.17;0.57;;;;;;;2.13;68.53;100618.13;5098839;28;20069;-65
2023/02/25 09:12:03;;;;;;;3.05;0.70;;;;;;;2.41;68.30;100630.34;5097735;28;20023;-65
2023/02/25 09:14:29;;;;;;;4.85;0.57;;;;;;;2.20;68.19;100620.03;5094258;28;20032;-65
2023/02/25 09:16:54;;;;;;;5.20;1.08;;;;;;;2.27;67.78;100650.31;5079557;28;20113;-65
2023/02/25 09:19:20;;;;;;;2.45;0.40;;;;;;;2.06;67.77;100617.88;5095747;28;20052;-64
2023/02/25 09:21:49;;;;;;;2.72;0.50;;;;;;;2.46;67.25;100643.22;5077142;28;20768;-65
2023/02/25 09:24:15;;;;;;;2.88;0.75;;;;;;;2.27;67.92;100629.06;5095967;28;20131;-64
2023/02/25 09:26:41;;;;;;;3.10;0.80;;;;;;;2.39;67.06;100640.31;5098834;28;20032;-65
2023/02/25 09:29:07;;;;;;;2.83;0.50;;;;;;;2.34;66.51;100639.91;5100626;28;20032;-65
2023/02/25 09:31:35;;;;;;;3.97;0.90;;;;;;;2.46;66.82;100640.56;5100763;28;20035;-65
2023/02/25 09:34:05;;;;;;;1.48;0.50;;;;;;;2.49;66.56;100616.34;5063605;28;20023;-65
2023/02/25 09:36:31;;;;;;;4.18;0.82;;;;;;;2.24;65.87;100639.97;5095081;28;20051;-64
2023/02/25 09:38:57;;;;;;;1.80;0.50;;;;;;;2.37;66.66;100633.47;5098738;28;20164;-65
2023/02/25 09:41:35;;;;;;;1.38;0.40;;;;;;;2.56;65.56;100630.69;5079931;28;20032;-65
2023/02/25 09:44:22;;;;;;;4.18;0.75;;;;;;;2.42;65.09;100684.31;5098343;28;20050;-65
2023/02/25 09:46:57;;;;;;;2.25;0.50;;;;;;;2.57;66.28;100641.16;5096293;28;20486;-65
2023/02/25 09:49:44;;;;;;;4.13;0.68;;;;;;;2.55;64.68;100647.59;5098310;28;20028;-65
2023/02/25 09:52:17;;;;;;;3.42;0.52;;;;;;;2.57;65.03;100640.31;5096117;28;20032;-65
2023/02/25 09:54:50;;;;;;;1.70;0.38;;;;;;;2.57;64.69;100658.91;5093877;28;20027;-65
2023/02/25 09:57:19;;;;;;;3.20;0.70;;;;;;;2.54;66.11;100651.25;5095743;28;20028;-65
2023/02/25 09:59:50;;;;;;;2.15;0.40;;;;;;;2.55;64.53;100667.03;5096195;28;20020;-65
2023/02/25 10:02:35;;;;;;;2.10;0.60;;;;;;;2.53;64.32;100692.06;5092594;28;20505;-65
2023/02/25 10:05:17;;;;;;;2.05;0.30;;;;;;;2.73;65.37;100698.94;5095078;28;20063;-65
2023/02/25 10:08:11;;;;;;;1.65;0.50;;;;;;;2.70;65.14;100682.44;5098195;28;20027;-65
2023/02/25 10:10:39;;;;;;;3.90;0.60;;;;;;;2.87;65.17;100681.63;5096946;28;20032;-65
2023/02/25 10:13:40;;;;;;;1.45;0.32;;;;;;;3.02;65.24;100682.75;5097087;28;20032;-65
2023/02/25 10:16:33;;;;;;;2.63;0.50;;;;;;;2.79;65.03;100681.56;5036023;28;20124;-65
2023/02/25 10:19:19;;;;;;;3.72;0.50;;;;;;;2.88;64.67;100693.06;5096014;28;20074;-65
2023/02/25 10:21:44;;;;;;;2.33;0.60;;;;;;;2.79;64.51;100732.03;5097430;28;20020;-65
2023/02/25 10:24:35;;;;;;;1.95;0.30;;;;;;;3.12;64.28;100693.31;5096623;28;20093;-65
2023/02/25 10:27:19;;;;;;;2.20;0.60;;;;;;;3.12;64.74;100685.34;5098676;28;20433;-66
2023/02/25 10:29:48;;;;;;;4.45;0.73;;;;;;;2.89;64.45;100697.44;5098365;28;20047;-65
2023/02/25 10:32:26;;;;;;;2.13;0.47;;;;;;;2.79;63.70;100743.50;5096697;28;20035;-65
2023/02/25 10:35:15;;;;;;;1.98;0.60;;;;;;;2.49;66.05;100738.53;5096511;28;20036;-65
2023/02/25 10:37:41;;;;;;;3.03;0.70;;;;;;;2.24;65.84;100671.84;5098050;28;20028;-65
2023/02/25 10:40:14;;;;;;;2.47;0.60;;;;;;;2.88;65.06;100735.59;5098736;28;20020;-65
2023/02/25 10:42:40;;;;;;;4.45;0.60;;;;;;;2.99;65.46;100746.84;5098482;28;20023;-65
2023/02/25 10:45:10;;;;;;;3.55;0.73;;;;;;;3.35;65.78;100704.28;5096246;28;20028;-65
2023/02/25 10:47:40;;;;;;;1.00;0.40;;;;;;;3.22;64.52;100711.84;5097003;28;20034;-65
2023/02/25 10:50:20;;;;;;;1.10;0.40;;;;;;;3.55;64.68;100723.56;5096333;28;20062;-66
2023/02/25 10:52:57;;;;;;;4.00;0.60;;;;;;;3.18;63.51;100727.25;5097967;28;20031;-65
2023/02/25 10:55:39;;;;;;;2.75;0.68;;;;;;;3.42;63.17;100726.63;5098239;28;20052;-65
2023/02/25 10:58:19;;;;;;;1.95;0.38;;;;;;;3.55;63.16;100725.41;5095761;28;20081;-65
2023/02/25 11:00:55;;;;;;;2.35;0.40;;;;;;;3.56;63.47;100743.00;5097469;28;20107;-66
2023/02/25 11:03:22;;;;;;;2.97;0.60;;;;;;;3.28;62.48;100730.66;5094619;28;20505;-65
2023/02/25 11:05:49;;;;;;;2.35;0.65;;;;;;;3.15;62.88;100738.19;5095215;28;20035;-65
2023/02/25 11:08:36;;;;;;;3.00;0.68;;;;;;;3.32;64.02;100719.72;5096022;28;20114;-65
2023/02/25 11:11:24;;;;;;;2.47;0.50;;;;;;;3.53;62.39;100739.66;5097364;28;20030;-66
2023/02/25 11:14:04;;;;;;;2.35;0.40;;;;;;;3.73;63.80;100742.13;5096850;28;20028;-65
2023/02/25 11:16:34;;;;;;;4.00;0.45;;;;;;;3.33;61.34;100743.50;5096907;28;20031;-65
2023/02/25 11:19:10;;;;;;;2.05;0.50;;;;;;;3.36;61.90;100732.56;5097256;28;20044;-65
2023/02/25 11:21:38;;;;;;;2.05;0.50;;;;;;;3.33;62.36;100740.84;5098067;28;20063;-65
2023/02/25 11:24:11;;;;;;;3.58;0.47;;;;;;;3.65;62.42;100742.91;5097505;28;20039;-65
2023/02/25 11:26:40;;;;;;;2.50;0.52;;;;;;;3.26;61.50;100740.63;5097883;28;20032;-65
2023/02/25 11:29:20;;;;;;;3.42;0.43;;;;;;;3.07;62.01;100759.38;5097400;28;20085;-65
2023/02/25 11:31:53;;;;;;;2.40;0.40;;;;;;;3.25;62.41;100759.41;5097601;28;20020;-66
2023/02/25 11:34:25;;;;;;;1.70;0.85;;;;;;;3.30;63.26;100760.59;5095731;28;20032;-65
2023/02/25 11:36:51;;;;;;;1.45;0.40;;;;;;;3.41;62.25;100750.69;5097150;28;20047;-65
2023/02/25 11:39:18;;;;;;;0.82;0.30;;;;;;;3.08;61.27;100762.88;5095119;28;20036;-65
2023/02/25 11:41:46;;;;;;;1.70;0.50;;;;;;;3.22;61.72;100755.22;5097516;28;20020;-65
2023/02/25 11:44:28;;;;;;;3.95;0.55;;;;;;;3.34;61.78;100747.00;5098343;28;20050;-65
2023/02/25 11:46:57;;;;;;;2.25;0.60;;;;;;;3.15;60.51;100786.06;5096778;28;20011;-65